createdAt,value
2018-05-12T00:01:40.806Z,95.60
2018-05-12T00:04:08.418Z,95.31
2018-05-12T00:06:36.124Z,95.38
2018-05-12T00:09:03.745Z,95.26
2018-05-12T00:11:32.251Z,95.31
2018-05-12T00:13:59.883Z,94.81
2018-05-12T00:16:28.280Z,94.95
2018-05-12T00:18:55.866Z,95.20
2018-05-12T00:21:23.445Z,93.17
2018-05-12T00:23:51.232Z,94.00
2018-05-12T00:26:18.821Z,94.55
2018-05-12T00:28:46.446Z,93.71
2018-05-12T00:31:14.026Z,94.12
2018-05-12T00:33:41.646Z,94.62
2018-05-12T00:36:09.225Z,95.03
2018-05-12T00:38:36.810Z,95.53
2018-05-12T00:41:04.389Z,95.87
2018-05-12T00:43:31.977Z,96.56
2018-05-12T00:45:59.597Z,96.41
2018-05-12T00:48:27.177Z,96.17
2018-05-12T00:50:54.816Z,97.08
2018-05-12T00:53:22.405Z,97.33
2018-05-12T00:55:49.995Z,97.81
2018-05-12T00:58:18.673Z,98.05
2018-05-12T01:00:46.254Z,98.19
2018-05-12T01:03:13.833Z,98.34
2018-05-12T01:05:41.415Z,98.38
2018-05-12T01:08:09.777Z,98.07
2018-05-12T01:10:37.361Z,98.08
2018-05-12T01:13:04.941Z,98.19
2018-05-12T01:15:32.517Z,98.33
2018-05-12T01:18:01.033Z,98.48
2018-05-12T01:20:28.608Z,98.84
2018-05-12T01:22:56.190Z,98.89
2018-05-12T01:25:23.764Z,99.08
2018-05-12T01:27:51.349Z,98.97
2018-05-12T01:30:19.704Z,99.31
2018-05-12T01:32:47.286Z,99.44
2018-05-12T01:35:14.906Z,99.47
2018-05-12T01:37:42.532Z,99.66
2018-05-12T01:40:10.117Z,99.73
2018-05-12T01:42:37.741Z,99.39
2018-05-12T01:45:05.326Z,98.55
2018-05-12T01:47:32.921Z,98.81
2018-05-12T01:50:00.534Z,99.00
2018-05-12T01:52:28.115Z,99.06
2018-05-12T01:54:55.694Z,98.92
2018-05-12T01:57:23.282Z,99.19
2018-05-12T01:59:50.862Z,99.44
2018-05-12T02:02:18.441Z,99.55
2018-05-12T02:04:46.065Z,99.87
2018-05-12T02:07:13.688Z,100.00
2018-05-12T02:09:41.322Z,99.75
2018-05-12T02:12:09.665Z,99.52
2018-05-12T02:14:37.284Z,99.75
2018-05-12T02:17:04.872Z,99.55
2018-05-12T02:19:32.484Z,99.60
2018-05-12T02:22:00.068Z,99.57
2018-05-12T02:24:28.421Z,99.69
2018-05-12T02:26:56.925Z,99.92
2018-05-12T02:29:24.513Z,100.00
2018-05-12T02:31:52.105Z,100.00
2018-05-12T02:34:19.689Z,99.84
2018-05-12T02:36:47.317Z,99.94
2018-05-12T02:39:14.941Z,100.00
2018-05-12T02:41:42.573Z,100.00
2018-05-12T02:44:10.161Z,100.00
2018-05-12T02:46:37.749Z,100.00
2018-05-12T02:49:05.346Z,100.00
2018-05-12T02:51:32.929Z,100.00
2018-05-12T02:54:00.523Z,100.00
2018-05-12T02:56:28.149Z,100.00
2018-05-12T02:58:55.778Z,100.00
2018-05-12T03:01:23.392Z,100.00
2018-05-12T03:03:50.991Z,100.00
2018-05-12T03:06:18.588Z,100.00
2018-05-12T03:08:46.212Z,100.00
2018-05-12T03:11:13.801Z,100.00
2018-05-12T03:13:41.421Z,100.00
2018-05-12T03:16:17.134Z,100.00
2018-05-12T03:18:44.730Z,100.00
2018-05-12T03:21:12.317Z,100.00
2018-05-12T03:23:39.903Z,100.00
2018-05-12T03:26:07.534Z,100.00
2018-05-12T03:28:35.128Z,99.95
2018-05-12T03:31:02.759Z,100.00
2018-05-12T03:33:30.353Z,99.62
2018-05-12T03:35:59.215Z,99.99
2018-05-12T03:38:26.809Z,100.00
2018-05-12T03:40:54.432Z,100.00
2018-05-12T03:43:22.013Z,99.39
2018-05-12T03:45:49.642Z,99.15
2018-05-12T03:48:17.265Z,98.61
2018-05-12T03:50:44.850Z,98.49
2018-05-12T03:53:12.474Z,98.44
2018-05-12T03:55:40.098Z,97.86
2018-05-12T03:58:07.685Z,97.67
2018-05-12T04:00:35.310Z,97.54
2018-05-12T04:03:03.425Z,97.79
2018-05-12T04:05:42.797Z,97.80
2018-05-12T04:08:22.943Z,97.32
2018-05-12T04:11:02.499Z,96.73
2018-05-12T04:13:31.026Z,97.27
2018-05-12T04:15:58.620Z,95.96
2018-05-12T04:18:26.293Z,96.52
2018-05-12T04:20:53.883Z,97.34
2018-05-12T04:23:21.516Z,96.37
2018-05-12T04:25:49.894Z,96.11
2018-05-12T04:28:18.261Z,95.21
2018-05-12T04:30:45.841Z,95.36
2018-05-12T04:33:13.422Z,95.32
2018-05-12T04:35:41.020Z,95.52
2018-05-12T04:38:08.637Z,95.12
2018-05-12T04:40:37.249Z,95.06
2018-05-12T04:43:05.605Z,94.50
2018-05-12T04:45:34.116Z,94.13
2018-05-12T04:48:01.737Z,94.12
2018-05-12T04:50:29.314Z,93.52
2018-05-12T04:52:56.897Z,93.93
2018-05-12T04:55:24.476Z,93.01
2018-05-12T04:57:52.060Z,93.23
2018-05-12T05:00:19.637Z,93.15
2018-05-12T05:02:47.223Z,93.44
2018-05-12T05:05:14.805Z,93.54
2018-05-12T05:07:42.379Z,93.28
2018-05-12T05:10:09.998Z,93.57
2018-05-12T05:12:37.621Z,92.96
2018-05-12T05:15:05.923Z,92.48
2018-05-12T05:17:33.501Z,92.48
2018-05-12T05:20:02.034Z,92.37
2018-05-12T05:22:29.621Z,93.00
2018-05-12T05:24:57.208Z,92.91
2018-05-12T05:27:24.786Z,92.76
2018-05-12T05:29:52.366Z,94.03
2018-05-12T05:32:19.957Z,93.88
2018-05-12T05:34:47.540Z,93.99
2018-05-12T05:37:15.131Z,94.22
2018-05-12T05:39:42.742Z,93.92
2018-05-12T05:42:10.321Z,94.21
2018-05-12T05:44:37.901Z,93.97
2018-05-12T05:47:05.482Z,93.20
2018-05-12T05:49:33.077Z,93.03
2018-05-12T05:52:00.661Z,93.40
2018-05-12T05:54:28.246Z,92.25
2018-05-12T05:56:55.833Z,91.79
2018-05-12T05:59:23.413Z,91.56
2018-05-12T06:01:51.010Z,91.56
2018-05-12T06:04:18.653Z,89.54
2018-05-12T06:06:46.265Z,88.33
2018-05-12T06:09:13.862Z,88.45
2018-05-12T06:11:41.454Z,89.40
2018-05-12T06:14:09.038Z,88.36
2018-05-12T06:16:36.630Z,87.55
2018-05-12T06:19:04.209Z,88.67
2018-05-12T06:21:31.797Z,85.65
2018-05-12T06:23:59.382Z,87.46
2018-05-12T06:26:27.026Z,88.15
2018-05-12T06:28:54.653Z,87.54
2018-05-12T06:31:22.230Z,86.80
2018-05-12T06:33:50.842Z,86.84
2018-05-12T06:36:18.449Z,85.97
2018-05-12T06:38:46.033Z,87.15
2018-05-12T06:41:13.617Z,85.85
2018-05-12T06:43:41.929Z,83.86
2018-05-12T06:46:09.510Z,84.87
2018-05-12T06:48:37.098Z,85.00
2018-05-12T06:51:06.710Z,83.96
2018-05-12T06:53:34.564Z,82.79
2018-05-12T06:56:02.153Z,82.62
2018-05-12T06:58:30.382Z,80.79
2018-05-12T07:00:57.965Z,80.08
2018-05-12T07:03:26.319Z,81.18
2018-05-12T07:05:53.901Z,82.36
2018-05-12T07:08:21.486Z,80.12
2018-05-12T07:10:49.066Z,78.28
2018-05-12T07:13:16.652Z,75.48
2018-05-12T07:15:44.273Z,78.59
2018-05-12T07:18:11.894Z,79.43
2018-05-12T07:20:39.482Z,80.32
2018-05-12T07:23:07.066Z,75.26
2018-05-12T07:25:35.432Z,73.35
2018-05-12T07:30:36.313Z,78.42
2018-05-12T07:33:03.898Z,76.89
2018-05-12T07:35:31.476Z,73.53
2018-05-12T07:37:59.095Z,71.78
2018-05-12T07:40:26.682Z,75.10
2018-05-12T07:42:54.265Z,74.20
2018-05-12T07:45:21.850Z,73.44
2018-05-12T07:47:50.213Z,70.75
2018-05-12T07:50:17.797Z,74.39
2018-05-12T07:52:45.382Z,75.34
2018-05-12T07:55:13.006Z,71.47
2018-05-12T07:57:40.592Z,71.28
2018-05-12T08:00:08.177Z,71.05
2018-05-12T08:02:35.762Z,69.88
2018-05-12T08:05:03.382Z,70.65
2018-05-12T08:07:30.957Z,72.79
2018-05-12T08:09:58.547Z,72.59
2018-05-12T08:12:27.041Z,67.96
2018-05-12T08:14:54.624Z,69.62
2018-05-12T08:17:22.221Z,68.75
2018-05-12T08:19:49.809Z,66.45
2018-05-12T08:22:17.401Z,65.67
2018-05-12T08:24:44.989Z,66.35
2018-05-12T08:27:12.574Z,66.26
2018-05-12T08:29:40.164Z,65.17
2018-05-12T08:32:07.745Z,69.17
2018-05-12T08:34:35.331Z,66.06
2018-05-12T08:37:02.921Z,65.11
2018-05-12T08:39:30.514Z,66.19
2018-05-12T08:41:59.005Z,65.04
2018-05-12T08:44:26.590Z,63.96
2018-05-12T08:46:54.173Z,70.15
2018-05-12T08:49:21.766Z,68.52
2018-05-12T08:51:50.124Z,70.80
2018-05-12T08:54:17.745Z,64.69
2018-05-12T08:56:46.143Z,69.06
2018-05-12T08:59:15.650Z,63.81
2018-05-12T09:01:44.131Z,63.13
2018-05-12T09:04:11.758Z,64.62
2018-05-12T09:06:39.342Z,62.53
2018-05-12T09:09:06.953Z,62.24
2018-05-12T09:11:34.537Z,63.16
2018-05-12T09:14:03.033Z,62.16
2018-05-12T09:16:31.629Z,65.15
2018-05-12T09:18:59.209Z,62.72
2018-05-12T09:21:26.825Z,63.30
2018-05-12T09:23:54.405Z,64.55
2018-05-12T09:26:22.025Z,63.18
2018-05-12T09:28:49.621Z,63.30
2018-05-12T09:31:17.278Z,64.84
2018-05-12T09:33:44.867Z,62.54
2018-05-12T09:36:13.125Z,67.88
2018-05-12T09:38:42.711Z,61.79
2018-05-12T09:41:14.033Z,61.13
2018-05-12T09:43:46.444Z,63.24
2018-05-12T09:46:15.269Z,60.91
2018-05-12T09:48:44.283Z,60.46
2018-05-12T09:54:05.138Z,64.44
2018-05-12T09:56:32.786Z,62.13
2018-05-12T09:59:00.378Z,63.85
2018-05-12T10:01:28.267Z,63.03
2018-05-12T10:03:55.894Z,63.04
2018-05-12T10:06:23.526Z,66.18
2018-05-12T10:08:51.136Z,61.74
2018-05-12T10:11:18.728Z,62.06
2018-05-12T10:13:46.316Z,63.08
2018-05-12T10:16:13.907Z,62.80
2018-05-12T10:18:41.538Z,63.93
2018-05-12T10:21:09.153Z,61.96
2018-05-12T10:23:36.882Z,63.05
2018-05-12T10:26:04.515Z,64.35
2018-05-12T10:28:32.150Z,62.50
2018-05-12T10:30:59.757Z,60.63
2018-05-12T10:33:27.388Z,63.30
2018-05-12T10:35:55.018Z,59.88
2018-05-12T10:38:22.599Z,62.93
2018-05-12T10:40:50.184Z,64.88
2018-05-12T10:43:17.769Z,60.87
2018-05-12T10:45:45.401Z,59.95
2018-05-12T10:48:13.001Z,59.15
2018-05-12T10:50:40.625Z,60.47
2018-05-12T10:53:08.259Z,61.66
2018-05-12T10:55:35.843Z,61.82
2018-05-12T10:58:03.471Z,60.87
2018-05-12T11:00:31.057Z,58.86
2018-05-12T11:02:58.645Z,58.58
2018-05-12T11:05:26.222Z,56.93
2018-05-12T11:07:54.711Z,58.83
2018-05-12T11:10:23.006Z,57.56
2018-05-12T11:12:50.698Z,56.87
2018-05-12T11:15:18.280Z,58.32
2018-05-12T11:17:45.866Z,62.10
2018-05-12T11:20:14.430Z,60.97
2018-05-12T11:22:41.970Z,62.05
2018-05-12T11:25:09.558Z,59.51
2018-05-12T11:27:37.181Z,58.93
2018-05-12T11:30:04.771Z,55.69
2018-05-12T11:32:32.361Z,57.36
2018-05-12T11:34:59.948Z,59.00
2018-05-12T11:37:27.541Z,58.21
2018-05-12T11:39:55.127Z,57.69
2018-05-12T11:42:23.483Z,58.25
2018-05-12T11:44:51.773Z,58.63
2018-05-12T11:47:20.146Z,57.59
2018-05-12T11:49:48.438Z,56.08
2018-05-12T11:52:16.805Z,53.47
2018-05-12T11:54:44.430Z,54.82
2018-05-12T11:57:12.098Z,55.93
2018-05-12T11:59:39.686Z,57.57
2018-05-12T12:02:07.317Z,57.56
2018-05-12T12:04:34.907Z,55.21
2018-05-12T12:07:02.493Z,56.14
2018-05-12T12:09:30.081Z,53.59
2018-05-12T12:11:57.668Z,53.61
2018-05-12T12:14:25.256Z,56.56
2018-05-12T12:16:52.857Z,55.33
2018-05-12T12:19:20.437Z,55.31
2018-05-12T12:21:48.024Z,57.62
2018-05-12T12:24:15.642Z,54.68
2018-05-12T12:26:43.232Z,55.77
2018-05-12T12:29:10.858Z,51.08
2018-05-12T12:31:39.343Z,54.56
2018-05-12T12:34:06.933Z,52.78
2018-05-12T12:36:34.522Z,52.14
2018-05-12T12:39:02.101Z,56.92
2018-05-12T12:41:30.630Z,57.80
2018-05-12T12:43:58.214Z,53.92
2018-05-12T12:46:26.538Z,53.92
2018-05-12T12:48:54.118Z,54.15
2018-05-12T12:51:21.698Z,51.68
2018-05-12T12:53:49.286Z,52.61
2018-05-12T12:56:16.874Z,51.17
2018-05-12T12:58:44.466Z,52.11
2018-05-12T13:01:12.051Z,52.73
2018-05-12T13:03:39.673Z,53.39
2018-05-12T13:06:07.290Z,53.35
2018-05-12T13:08:35.782Z,55.96
2018-05-12T13:11:03.367Z,52.74
2018-05-12T13:13:31.013Z,58.16
2018-05-12T13:15:58.631Z,53.75
2018-05-12T13:18:27.136Z,54.20
2018-05-12T13:20:55.622Z,52.76
2018-05-12T13:23:23.246Z,51.85
2018-05-12T13:25:50.829Z,55.72
2018-05-12T13:28:18.416Z,51.53
2018-05-12T13:30:46.005Z,49.84
2018-05-12T13:33:14.366Z,51.67
2018-05-12T13:35:42.843Z,49.32
2018-05-12T13:38:10.433Z,52.85
2018-05-12T13:40:38.025Z,53.19
2018-05-12T13:43:05.644Z,54.29
2018-05-12T13:45:33.261Z,50.95
2018-05-12T13:48:01.745Z,51.90
2018-05-12T13:50:30.266Z,53.95
2018-05-12T13:52:57.851Z,50.99
2018-05-12T13:55:25.470Z,51.33
2018-05-12T13:57:53.048Z,52.32
2018-05-12T14:00:21.374Z,51.73
2018-05-12T14:02:49.730Z,51.99
2018-05-12T14:05:18.228Z,52.36
2018-05-12T14:07:45.801Z,50.12
2018-05-12T14:10:13.374Z,50.19
2018-05-12T14:12:41.722Z,49.51
2018-05-12T14:15:10.094Z,49.24
2018-05-12T14:17:37.677Z,51.06
2018-05-12T14:20:06.194Z,48.90
2018-05-12T14:22:34.645Z,52.14
2018-05-12T14:25:02.234Z,49.56
2018-05-12T14:27:30.765Z,50.61
2018-05-12T14:29:59.123Z,51.71
2018-05-12T14:32:26.745Z,53.36
2018-05-12T14:34:55.233Z,51.33
2018-05-12T14:37:23.601Z,52.43
2018-05-12T14:39:52.967Z,53.60
2018-05-12T14:42:20.639Z,51.76
2018-05-12T14:44:48.214Z,49.73
2018-05-12T14:47:15.803Z,46.81
2018-05-12T14:49:43.381Z,48.02
2018-05-12T14:52:12.582Z,45.91
2018-05-12T14:54:40.939Z,43.37
2018-05-12T14:57:08.521Z,43.79
2018-05-12T14:59:36.109Z,46.70
2018-05-12T15:02:04.493Z,48.72
2018-05-12T15:04:32.117Z,49.80
2018-05-12T15:06:59.724Z,47.79
2018-05-12T15:09:28.252Z,50.33
2018-05-12T15:11:56.644Z,49.94
2018-05-12T15:14:24.270Z,50.38
2018-05-12T15:16:53.810Z,51.35
2018-05-12T15:19:22.349Z,46.49
2018-05-12T15:21:50.700Z,44.64
2018-05-12T15:24:19.001Z,44.27
2018-05-12T15:26:47.401Z,43.18
2018-05-12T15:29:15.902Z,43.22
2018-05-12T15:31:44.441Z,44.55
2018-05-12T15:34:12.023Z,42.94
2018-05-12T15:36:40.306Z,45.79
2018-05-12T15:39:07.887Z,48.91
2018-05-12T15:41:36.283Z,51.95
2018-05-12T15:44:04.735Z,54.91
2018-05-12T15:46:33.073Z,50.98
2018-05-12T15:49:00.652Z,52.17
2018-05-12T15:51:29.186Z,51.57
2018-05-12T15:53:57.564Z,55.36
2018-05-12T15:56:26.053Z,55.87
2018-05-12T15:58:54.579Z,54.41
2018-05-12T16:01:22.865Z,55.94
2018-05-12T16:03:51.221Z,58.25
2018-05-12T16:06:18.858Z,53.53
2018-05-12T16:08:46.444Z,56.20
2018-05-12T16:11:14.026Z,59.59
2018-05-12T16:13:41.612Z,56.85
2018-05-12T16:16:09.210Z,56.44
2018-05-12T16:18:36.790Z,56.98
2018-05-12T16:21:04.374Z,57.43
2018-05-12T16:23:32.013Z,56.97
2018-05-12T16:26:00.374Z,60.24
2018-05-12T16:28:28.738Z,59.07
2018-05-12T16:30:56.319Z,54.85
2018-05-12T16:33:24.802Z,59.06
2018-05-12T16:35:53.198Z,57.74
2018-05-12T16:38:21.490Z,61.06
2018-05-12T16:40:49.074Z,59.94
2018-05-12T16:43:16.673Z,59.49
2018-05-12T16:45:45.161Z,60.50
2018-05-12T16:48:12.741Z,59.08
2018-05-12T16:50:40.329Z,59.42
2018-05-12T16:53:07.947Z,58.98
2018-05-12T16:55:35.569Z,59.46
2018-05-12T16:58:04.017Z,57.48
2018-05-12T17:00:31.605Z,54.75
2018-05-12T17:02:59.187Z,57.84
2018-05-12T17:05:26.774Z,57.49
2018-05-12T17:07:55.246Z,58.73
2018-05-12T17:10:23.521Z,60.14
2018-05-12T17:12:51.122Z,60.93
2018-05-12T17:15:18.711Z,63.39
2018-05-12T17:17:46.331Z,61.65
2018-05-12T17:20:14.915Z,64.05
2018-05-12T17:22:43.330Z,64.60
2018-05-12T17:25:10.909Z,61.71
2018-05-12T17:27:38.495Z,65.61
2018-05-12T17:30:06.073Z,65.02
2018-05-12T17:32:33.657Z,66.72
2018-05-12T17:35:01.597Z,67.94
2018-05-12T17:37:29.185Z,65.35
2018-05-12T17:39:56.770Z,65.71
2018-05-12T17:42:25.116Z,67.19
2018-05-12T17:44:53.531Z,67.22
2018-05-12T17:47:21.113Z,67.47
2018-05-12T17:49:48.729Z,69.34
2018-05-12T17:52:16.314Z,69.15
2018-05-12T17:54:43.938Z,69.75
2018-05-12T17:57:11.516Z,71.25
2018-05-12T17:59:39.142Z,69.76
2018-05-12T18:02:06.769Z,69.15
2018-05-12T18:04:34.354Z,72.68
2018-05-12T18:07:01.972Z,70.18
2018-05-12T18:09:29.558Z,70.42
2018-05-12T18:11:57.192Z,71.10
2018-05-12T18:14:24.786Z,72.48
2018-05-12T18:16:52.424Z,72.01
2018-05-12T18:19:20.032Z,70.27
2018-05-12T18:21:48.537Z,72.88
2018-05-12T18:24:16.172Z,72.94
2018-05-12T18:26:43.977Z,74.16
2018-05-12T18:29:11.580Z,73.57
2018-05-12T18:31:39.961Z,73.88
2018-05-12T18:34:07.551Z,73.71
2018-05-12T18:36:35.855Z,74.56
2018-05-12T18:39:04.251Z,74.89
2018-05-12T18:41:31.851Z,75.50
2018-05-12T18:44:00.378Z,74.82
2018-05-12T18:46:27.967Z,74.86
2018-05-12T18:48:55.697Z,76.26
2018-05-12T18:51:23.292Z,75.48
2018-05-12T18:53:50.939Z,75.82
2018-05-12T18:56:18.529Z,77.17
2018-05-12T18:58:46.161Z,76.86
2018-05-12T19:01:13.751Z,76.83
2018-05-12T19:03:41.522Z,77.56
2018-05-12T19:06:09.925Z,77.68
2018-05-12T19:08:37.548Z,77.70
2018-05-12T19:11:05.913Z,77.70
2018-05-12T19:13:33.489Z,78.34
2018-05-12T19:16:01.119Z,78.49
2018-05-12T19:18:28.718Z,79.89
2018-05-12T19:20:56.356Z,79.43
2018-05-12T19:23:23.962Z,79.28
2018-05-12T19:25:51.548Z,79.63
2018-05-12T19:28:19.130Z,79.73
2018-05-12T19:30:46.709Z,80.14
2018-05-12T19:33:14.290Z,80.18
2018-05-12T19:35:41.877Z,80.54
2018-05-12T19:38:09.456Z,80.77
2018-05-12T19:40:37.039Z,81.12
2018-05-12T19:43:04.634Z,81.70
2018-05-12T19:45:33.047Z,81.94
2018-05-12T19:48:00.659Z,81.90
2018-05-12T19:50:28.241Z,82.45
2018-05-12T19:52:55.827Z,82.37
2018-05-12T19:55:23.409Z,81.73
2018-05-12T19:57:51.120Z,82.37
2018-05-12T20:00:18.705Z,81.73
2018-05-12T20:02:46.291Z,82.61
2018-05-12T20:05:14.810Z,82.70
2018-05-12T20:07:42.391Z,83.19
2018-05-12T20:10:10.017Z,83.58
2018-05-12T20:12:37.623Z,83.43
2018-05-12T20:15:05.254Z,83.69
2018-05-12T20:17:32.838Z,84.01
2018-05-12T20:20:00.419Z,83.77
2018-05-12T20:22:28.011Z,84.00
2018-05-12T20:24:55.598Z,83.98
2018-05-12T20:27:23.226Z,83.88
2018-05-12T20:29:50.811Z,84.23
2018-05-12T20:32:19.268Z,84.22
2018-05-12T20:34:47.122Z,84.99
2018-05-12T20:37:14.777Z,85.13
2018-05-12T20:39:42.366Z,85.24
2018-05-12T20:42:10.006Z,84.89
2018-05-12T20:44:37.603Z,85.57
2018-05-12T20:47:05.185Z,86.10
2018-05-12T20:49:32.767Z,85.86
2018-05-12T20:52:00.381Z,85.93
2018-05-12T20:54:27.970Z,85.56
2018-05-12T20:56:56.385Z,85.13
2018-05-12T20:59:24.671Z,85.83
2018-05-12T21:01:53.146Z,85.46
2018-05-12T21:04:20.741Z,86.00
2018-05-12T21:06:48.642Z,85.36
2018-05-12T21:09:16.230Z,86.13
2018-05-12T21:11:43.859Z,86.18
2018-05-12T21:14:11.485Z,86.74
2018-05-12T21:16:39.086Z,86.51
2018-05-12T21:19:06.714Z,86.73
2018-05-12T21:21:34.305Z,87.34
2018-05-12T21:24:02.015Z,87.40
2018-05-12T21:26:30.357Z,87.30
2018-05-12T21:28:58.717Z,87.68
2018-05-12T21:31:26.302Z,87.50
2018-05-12T21:33:53.925Z,87.77
2018-05-12T21:36:21.511Z,87.39
2018-05-12T21:38:49.142Z,87.83
2018-05-12T21:41:16.772Z,88.09
2018-05-12T21:43:44.373Z,88.16
2018-05-12T21:46:12.887Z,88.06
2018-05-12T21:48:41.385Z,88.72
2018-05-12T21:51:09.015Z,88.43
2018-05-12T21:53:36.674Z,88.84
2018-05-12T21:56:04.266Z,89.06
2018-05-12T21:58:32.010Z,89.28
2018-05-12T22:00:59.642Z,89.05
2018-05-12T22:03:27.277Z,89.46
2018-05-12T22:05:54.857Z,89.01
2018-05-12T22:08:23.378Z,89.11
2018-05-12T22:10:51.775Z,89.72
2018-05-12T22:13:19.390Z,89.50
2018-05-12T22:15:46.978Z,89.71
2018-05-12T22:18:16.449Z,89.85
2018-05-12T22:20:44.063Z,89.04
2018-05-12T22:23:11.682Z,89.35
2018-05-12T22:25:39.262Z,89.17
2018-05-12T22:28:06.887Z,89.29
2018-05-12T22:30:34.574Z,89.60
2018-05-12T22:33:02.133Z,89.73
2018-05-12T22:35:29.720Z,89.87
2018-05-12T22:37:57.304Z,89.60
2018-05-12T22:40:25.797Z,89.67
2018-05-12T22:42:54.164Z,89.05
2018-05-12T22:45:21.750Z,89.37
2018-05-12T22:47:49.335Z,89.36
2018-05-12T22:50:16.963Z,89.73
2018-05-12T22:52:44.549Z,90.11
2018-05-12T22:55:12.901Z,89.94
2018-05-12T22:57:40.481Z,89.73
2018-05-12T23:00:08.066Z,90.27
2018-05-12T23:02:35.651Z,90.26
2018-05-12T23:05:03.228Z,90.23
2018-05-12T23:07:30.806Z,90.98
2018-05-12T23:09:58.390Z,91.19
2018-05-12T23:12:25.973Z,90.82
2018-05-12T23:14:53.551Z,90.96
2018-05-12T23:17:21.140Z,91.04
2018-05-12T23:19:49.508Z,90.77
2018-05-12T23:22:17.090Z,90.65
2018-05-12T23:24:45.585Z,90.90
2018-05-12T23:27:13.954Z,91.08
2018-05-12T23:29:41.535Z,90.97
2018-05-12T23:32:09.118Z,90.65
2018-05-12T23:34:36.706Z,91.25
2018-05-12T23:37:05.125Z,91.13
2018-05-12T23:39:33.614Z,91.64
2018-05-12T23:42:01.202Z,91.95
2018-05-12T23:44:28.785Z,91.72
2018-05-12T23:46:56.366Z,91.62
2018-05-12T23:49:23.941Z,91.80
2018-05-12T23:51:52.435Z,92.04
2018-05-12T23:54:20.976Z,92.26
2018-05-12T23:56:48.557Z,92.03
2018-05-12T23:59:16.142Z,91.69
